createdAt,value
2023-04-03T00:01:43.412Z,26.02
2023-04-03T00:04:12.641Z,30.90
2023-04-03T00:06:41.689Z,39.28
2023-04-03T00:09:10.744Z,42.10
2023-04-03T00:11:39.731Z,37.47
2023-04-03T00:14:08.789Z,34.55
2023-04-03T00:16:37.915Z,32.85
2023-04-03T00:19:07.541Z,30.33
2023-04-03T00:21:36.780Z,28.98
2023-04-03T00:24:05.871Z,28.08
2023-04-03T00:26:34.843Z,29.30
2023-04-03T00:29:03.846Z,31.23
2023-04-03T00:31:32.973Z,28.08
2023-04-03T00:34:02.047Z,31.10
2023-04-03T00:36:31.351Z,29.35
2023-04-03T00:39:00.521Z,26.80
2023-04-03T00:41:29.495Z,27.13
2023-04-03T00:43:58.740Z,26.90
2023-04-03T00:46:27.717Z,26.90
2023-04-03T00:48:56.751Z,27.15
2023-04-03T00:51:29.744Z,27.20
2023-04-03T00:54:03.426Z,26.77
2023-04-03T00:56:33.857Z,26.20
2023-04-03T00:59:14.092Z,26.42
2023-04-03T01:01:45.599Z,26.38
2023-04-03T01:04:33.428Z,26.23
2023-04-03T01:07:09.244Z,24.95
2023-04-03T01:09:38.825Z,25.60
2023-04-03T01:12:23.147Z,26.42
2023-04-03T01:14:58.157Z,26.75
2023-04-03T01:17:37.405Z,26.27
2023-04-03T01:20:30.771Z,26.75
2023-04-03T01:23:11.228Z,26.30
2023-04-03T01:25:44.186Z,26.27
2023-04-03T01:28:16.765Z,26.93
2023-04-03T01:31:17.126Z,27.77
2023-04-03T01:33:46.814Z,28.02
2023-04-03T01:36:26.911Z,27.70
2023-04-03T01:38:57.138Z,26.40
2023-04-03T01:41:27.683Z,26.33
2023-04-03T01:43:56.872Z,26.15
2023-04-03T01:46:35.246Z,26.50
2023-04-03T01:49:04.608Z,27.67
2023-04-03T01:51:35.798Z,25.75
2023-04-03T01:54:04.885Z,26.98
2023-04-03T01:56:34.010Z,29.65
2023-04-03T01:59:02.982Z,27.58
2023-04-03T02:01:32.195Z,26.77
2023-04-03T02:04:01.260Z,27.83
2023-04-03T02:06:30.261Z,26.02
2023-04-03T02:09:02.181Z,27.63
2023-04-03T02:11:31.168Z,27.45
2023-04-03T02:14:00.128Z,26.30
2023-04-03T02:16:29.225Z,27.65
2023-04-03T02:18:58.308Z,26.40
2023-04-03T02:21:27.569Z,26.23
2023-04-03T02:23:59.012Z,26.10
2023-04-03T02:26:29.020Z,27.02
2023-04-03T02:28:58.162Z,29.20
2023-04-03T02:31:28.754Z,27.42
2023-04-03T02:33:57.933Z,28.85
2023-04-03T02:36:27.134Z,24.27
2023-04-03T02:38:56.899Z,25.40
2023-04-03T02:41:27.826Z,26.05
2023-04-03T02:43:57.558Z,24.92
2023-04-03T02:46:26.791Z,25.40
2023-04-03T02:48:56.301Z,22.75
2023-04-03T02:51:25.703Z,24.85
2023-04-03T02:53:55.165Z,24.60
2023-04-03T02:56:24.385Z,25.38
2023-04-03T02:58:53.652Z,24.48
2023-04-03T03:01:23.085Z,22.45
2023-04-03T03:03:52.095Z,24.13
2023-04-03T03:06:21.383Z,23.88
2023-04-03T03:08:50.384Z,25.90
2023-04-03T03:11:19.582Z,23.15
2023-04-03T03:13:48.604Z,23.77
2023-04-03T03:16:17.564Z,21.58
2023-04-03T03:18:46.755Z,23.65
2023-04-03T03:21:15.787Z,22.38
2023-04-03T03:23:44.843Z,22.65
2023-04-03T03:26:14.442Z,23.48
2023-04-03T03:28:43.480Z,23.35
2023-04-03T03:31:12.844Z,23.15
2023-04-03T03:33:44.849Z,23.02
2023-04-03T03:36:13.839Z,25.48
2023-04-03T03:38:43.029Z,22.13
2023-04-03T03:41:12.269Z,25.80
2023-04-03T03:43:41.382Z,22.88
2023-04-03T03:46:10.557Z,21.70
2023-04-03T03:48:39.568Z,21.85
2023-04-03T03:51:08.636Z,22.70
2023-04-03T03:53:37.895Z,22.17
2023-04-03T03:56:07.928Z,23.02
2023-04-03T03:58:40.055Z,23.42
2023-04-03T04:01:09.960Z,22.05
2023-04-03T04:03:39.463Z,23.35
2023-04-03T04:06:08.634Z,23.23
2023-04-03T04:08:37.727Z,23.73
2023-04-03T04:11:06.871Z,22.63
2023-04-03T04:13:36.245Z,22.20
2023-04-03T04:16:05.433Z,23.63
2023-04-03T04:18:34.437Z,24.08
2023-04-03T04:21:03.698Z,22.95
2023-04-03T04:23:32.878Z,21.58
2023-04-03T04:26:01.940Z,23.13
2023-04-03T04:28:31.506Z,21.60
2023-04-03T04:31:00.531Z,22.05
2023-04-03T04:33:29.604Z,23.13
2023-04-03T04:35:58.702Z,22.48
2023-04-03T04:38:27.879Z,21.65
2023-04-03T04:40:56.818Z,24.02
2023-04-03T04:43:26.071Z,21.30
2023-04-03T04:46:07.218Z,21.27
2023-04-03T04:48:37.674Z,22.85
2023-04-03T04:51:07.244Z,21.83
2023-04-03T04:53:36.371Z,22.10
2023-04-03T04:56:05.453Z,20.48
2023-04-03T04:58:34.443Z,21.42
2023-04-03T05:01:08.584Z,21.27
2023-04-03T05:03:38.353Z,21.98
2023-04-03T05:06:07.833Z,21.17
2023-04-03T05:08:40.784Z,20.80
2023-04-03T05:11:11.574Z,21.73
2023-04-03T05:13:40.530Z,21.60
2023-04-03T05:16:09.649Z,22.38
2023-04-03T05:18:38.705Z,21.75
2023-04-03T05:21:07.931Z,21.50
2023-04-03T05:23:37.064Z,20.55
2023-04-03T05:26:06.127Z,21.20
2023-04-03T05:28:35.337Z,22.33
2023-04-03T05:31:04.731Z,21.35
2023-04-03T05:33:33.810Z,20.42
2023-04-03T05:36:06.501Z,19.75
2023-04-03T05:38:36.118Z,21.05
2023-04-03T05:41:05.330Z,19.60
2023-04-03T05:43:35.830Z,22.20
2023-04-03T05:46:05.105Z,20.25
2023-04-03T05:48:42.794Z,21.40
2023-04-03T05:51:21.952Z,21.05
2023-04-03T05:53:53.034Z,20.85
2023-04-03T05:56:22.619Z,22.05
2023-04-03T05:58:51.568Z,21.60
2023-04-03T06:01:20.574Z,21.67
2023-04-03T06:03:49.716Z,22.70
2023-04-03T06:06:23.841Z,25.70
2023-04-03T06:08:53.025Z,21.67
2023-04-03T06:11:23.709Z,26.52
2023-04-03T06:13:52.693Z,21.85
2023-04-03T06:16:21.817Z,21.92
2023-04-03T06:18:51.078Z,21.73
2023-04-03T06:21:20.040Z,20.63
2023-04-03T06:23:49.064Z,20.40
2023-04-03T06:26:18.136Z,20.50
2023-04-03T06:28:47.157Z,21.17
2023-04-03T06:31:16.206Z,20.52
2023-04-03T06:33:45.284Z,21.13
2023-04-03T06:39:34.723Z,21.70
2023-04-03T06:42:03.792Z,22.13
2023-04-03T06:44:32.870Z,20.83
2023-04-03T06:47:02.001Z,22.20
2023-04-03T06:49:31.289Z,21.42
2023-04-03T06:52:02.401Z,20.55
2023-04-03T06:54:31.738Z,21.25
2023-04-03T06:57:01.131Z,20.70
2023-04-03T06:59:30.421Z,18.58
2023-04-03T07:02:01.143Z,19.15
2023-04-03T07:04:30.275Z,18.77
2023-04-03T07:06:59.626Z,18.55
2023-04-03T07:09:28.569Z,19.77
2023-04-03T07:11:57.776Z,19.02
2023-04-03T07:14:26.823Z,18.85
2023-04-03T07:16:55.970Z,18.73
2023-04-03T07:19:26.685Z,19.27
2023-04-03T07:21:55.672Z,20.13
2023-04-03T07:24:24.628Z,19.98
2023-04-03T07:27:08.144Z,20.13
2023-04-03T07:29:38.037Z,19.40
2023-04-03T07:32:08.011Z,19.55
2023-04-03T07:34:37.528Z,19.88
2023-04-03T07:37:07.099Z,19.83
2023-04-03T07:39:36.142Z,19.70
2023-04-03T07:42:05.213Z,20.38
2023-04-03T07:44:34.678Z,20.00
2023-04-03T07:47:03.689Z,19.13
2023-04-03T07:49:33.507Z,19.60
2023-04-03T07:52:02.511Z,20.42
2023-04-03T07:54:31.792Z,19.88
2023-04-03T07:57:00.870Z,19.55
2023-04-03T07:59:34.863Z,18.67
2023-04-03T08:02:07.589Z,19.40
2023-04-03T08:04:40.350Z,18.27
2023-04-03T08:07:12.823Z,19.95
2023-04-03T08:09:42.162Z,18.40
2023-04-03T08:12:13.601Z,18.92
2023-04-03T08:14:42.879Z,19.20
2023-04-03T08:17:13.951Z,20.17
2023-04-03T08:19:43.738Z,19.88
2023-04-03T08:22:12.883Z,18.63
2023-04-03T08:24:52.419Z,18.30
2023-04-03T08:27:27.646Z,18.90
2023-04-03T08:29:57.405Z,20.85
2023-04-03T08:32:27.838Z,20.08
2023-04-03T08:34:56.892Z,19.55
2023-04-03T08:37:25.836Z,18.60
2023-04-03T08:39:55.815Z,19.45
2023-04-03T08:42:47.252Z,19.67
2023-04-03T08:45:45.649Z,20.05
2023-04-03T08:48:14.764Z,20.95
2023-04-03T08:50:52.982Z,20.05
2023-04-03T08:53:30.724Z,20.17
2023-04-03T08:56:00.284Z,19.88
2023-04-03T08:58:37.825Z,23.63
2023-04-03T09:01:10.258Z,23.35
2023-04-03T09:03:42.500Z,22.40
2023-04-03T09:06:17.498Z,23.10
2023-04-03T09:08:55.834Z,24.17
2023-04-03T09:11:29.687Z,24.83
2023-04-03T09:13:58.641Z,25.85
2023-04-03T09:16:46.215Z,26.75
2023-04-03T09:19:30.963Z,24.27
2023-04-03T09:22:24.811Z,20.67
2023-04-03T09:25:04.670Z,23.77
2023-04-03T09:27:33.726Z,20.15
2023-04-03T09:30:02.962Z,19.50
2023-04-03T09:32:34.453Z,29.30
2023-04-03T09:35:20.505Z,28.95
2023-04-03T09:38:15.559Z,31.02
2023-04-03T09:41:16.351Z,34.30
2023-04-03T09:43:56.693Z,34.17
2023-04-03T09:46:37.084Z,31.38
2023-04-03T09:49:09.829Z,29.23
2023-04-03T09:51:39.939Z,28.00
2023-04-03T09:54:34.053Z,29.42
2023-04-03T09:57:12.292Z,29.35
2023-04-03T09:59:50.273Z,30.38
2023-04-03T10:02:31.863Z,33.20
2023-04-03T10:05:09.444Z,34.30
2023-04-03T10:07:44.446Z,34.42
2023-04-03T10:10:20.384Z,33.17
2023-04-03T10:12:50.276Z,34.35
2023-04-03T10:15:23.841Z,32.47
2023-04-03T10:17:57.503Z,31.33
2023-04-03T10:20:52.196Z,32.10
2023-04-03T10:23:24.988Z,33.60
2023-04-03T10:26:27.419Z,34.33
2023-04-03T10:29:20.951Z,33.03
2023-04-03T10:32:16.016Z,34.60
2023-04-03T10:34:58.466Z,29.77
2023-04-03T10:37:56.067Z,32.80
2023-04-03T10:40:42.753Z,33.28
2023-04-03T10:43:30.014Z,33.72
2023-04-03T10:46:18.728Z,31.48
2023-04-03T10:49:05.649Z,34.15
2023-04-03T10:51:48.525Z,28.92
2023-04-03T10:54:41.218Z,27.50
2023-04-03T10:57:14.024Z,26.83
2023-04-03T10:59:45.990Z,26.45
2023-04-03T11:02:29.425Z,26.95
2023-04-03T11:05:05.044Z,25.50
2023-04-03T11:07:43.205Z,24.38
2023-04-03T11:10:26.450Z,26.50
2023-04-03T11:13:20.726Z,25.20
2023-04-03T11:18:40.510Z,26.60
2023-04-03T11:21:37.797Z,25.98
2023-04-03T11:24:14.729Z,26.65
2023-04-03T11:26:44.650Z,26.25
2023-04-03T11:29:34.441Z,25.52
2023-04-03T11:32:29.936Z,24.88
2023-04-03T11:35:03.201Z,28.00
2023-04-03T11:37:35.201Z,26.48
2023-04-03T11:40:21.970Z,25.67
2023-04-03T11:42:54.700Z,26.67
2023-04-03T11:45:29.492Z,25.35
2023-04-03T11:47:58.666Z,25.70
2023-04-03T11:50:43.846Z,26.25
2023-04-03T11:53:16.092Z,26.52
2023-04-03T11:55:55.179Z,26.80
2023-04-03T11:58:35.664Z,28.90
2023-04-03T12:01:13.169Z,25.65
2023-04-03T12:03:48.691Z,27.92
2023-04-03T12:06:18.929Z,24.38
2023-04-03T12:08:56.548Z,24.30
2023-04-03T12:11:32.569Z,24.90
2023-04-03T12:14:01.606Z,24.90
2023-04-03T12:16:40.630Z,26.02
2023-04-03T12:22:11.452Z,29.80
2023-04-03T12:24:43.624Z,29.02
2023-04-03T12:27:35.088Z,27.08
2023-04-03T12:30:09.401Z,29.17
2023-04-03T12:33:11.980Z,27.42
2023-04-03T12:36:10.826Z,31.73
2023-04-03T12:38:59.939Z,30.80
2023-04-03T12:41:44.814Z,30.90
2023-04-03T12:44:28.354Z,30.17
2023-04-03T12:46:57.808Z,30.67
2023-04-03T12:49:33.473Z,30.52
2023-04-03T12:52:04.004Z,29.60
2023-04-03T12:54:42.750Z,32.80
2023-04-03T12:57:13.611Z,32.72
2023-04-03T12:59:43.458Z,35.70
2023-04-03T13:02:39.650Z,32.58
2023-04-03T13:05:17.605Z,36.70
2023-04-03T13:07:50.918Z,35.03
2023-04-03T13:10:21.158Z,36.00
2023-04-03T13:13:01.861Z,33.17
2023-04-03T13:15:42.527Z,34.92
2023-04-03T13:18:37.024Z,35.50
2023-04-03T13:21:19.630Z,35.72
2023-04-03T13:23:57.675Z,35.38
2023-04-03T13:29:12.747Z,36.55
2023-04-03T13:31:47.030Z,34.92
2023-04-03T13:34:21.072Z,34.50
2023-04-03T13:37:01.969Z,33.55
2023-04-03T13:39:34.901Z,34.05
2023-04-03T13:42:23.895Z,35.65
2023-04-03T13:45:23.659Z,34.90
2023-04-03T13:47:54.588Z,33.63
2023-04-03T13:50:27.723Z,35.08
2023-04-03T13:53:03.137Z,36.67
2023-04-03T13:55:36.030Z,34.05
2023-04-03T13:58:11.035Z,33.33
2023-04-03T14:00:55.918Z,34.70
2023-04-03T14:03:35.652Z,35.35
2023-04-03T14:06:07.646Z,34.22
2023-04-03T14:08:42.925Z,33.72
2023-04-03T14:11:25.927Z,33.80
2023-04-03T14:13:55.343Z,35.20
2023-04-03T14:16:29.374Z,33.83
2023-04-03T14:18:58.989Z,32.22
2023-04-03T14:21:28.403Z,33.17
2023-04-03T14:23:58.580Z,34.95
2023-04-03T14:26:29.375Z,36.75
2023-04-03T14:28:58.482Z,39.95
2023-04-03T14:31:27.740Z,36.67
2023-04-03T14:33:56.787Z,35.60
2023-04-03T14:36:31.569Z,31.25
2023-04-03T14:39:01.560Z,31.85
2023-04-03T14:41:31.291Z,33.50
2023-04-03T14:44:00.356Z,34.20
2023-04-03T14:46:48.726Z,34.95
2023-04-03T14:49:31.083Z,32.70
2023-04-03T14:52:00.772Z,32.75
2023-04-03T14:54:31.262Z,34.47
2023-04-03T14:57:02.249Z,32.90
2023-04-03T14:59:33.326Z,33.60
2023-04-03T15:02:02.517Z,32.25
2023-04-03T15:04:31.832Z,32.30
2023-04-03T15:07:00.827Z,32.88
2023-04-03T15:09:31.308Z,32.85
2023-04-03T15:12:00.715Z,33.25
2023-04-03T15:14:36.686Z,32.08
2023-04-03T15:17:08.793Z,33.28
2023-04-03T15:19:42.025Z,33.05
2023-04-03T15:22:17.241Z,32.83
2023-04-03T15:24:47.202Z,32.38
2023-04-03T15:27:17.506Z,32.75
2023-04-03T15:29:47.424Z,32.85
2023-04-03T15:32:16.928Z,33.22
2023-04-03T15:34:45.984Z,32.75
2023-04-03T15:37:14.923Z,32.88
2023-04-03T15:39:43.979Z,32.38
2023-04-03T15:42:14.537Z,31.05
2023-04-03T15:44:43.615Z,30.83
2023-04-03T15:47:13.076Z,30.77
2023-04-03T15:49:42.318Z,30.88
2023-04-03T15:52:11.468Z,30.25
2023-04-03T15:54:40.469Z,31.83
2023-04-03T15:57:09.516Z,31.60
2023-04-03T15:59:38.607Z,30.23
2023-04-03T16:02:10.862Z,32.47
2023-04-03T16:04:40.076Z,31.38
2023-04-03T16:07:09.120Z,31.00
2023-04-03T16:09:38.465Z,31.00
2023-04-03T16:12:07.646Z,32.58
2023-04-03T16:14:36.617Z,33.47
2023-04-03T16:17:05.736Z,31.77
2023-04-03T16:19:35.265Z,32.25
2023-04-03T16:22:04.736Z,32.08
2023-04-03T16:24:34.415Z,31.73
2023-04-03T16:27:03.428Z,32.50
2023-04-03T16:29:35.373Z,31.80
2023-04-03T16:32:05.655Z,30.42
2023-04-03T16:34:35.027Z,32.13
2023-04-03T16:37:04.205Z,30.70
2023-04-03T16:39:33.230Z,31.63
2023-04-03T16:42:04.858Z,31.08
2023-04-03T16:44:36.868Z,31.17
2023-04-03T16:47:06.742Z,32.10
2023-04-03T16:49:40.846Z,29.73
2023-04-03T16:52:10.085Z,30.67
2023-04-03T16:54:41.916Z,29.77
2023-04-03T16:57:11.102Z,30.50
2023-04-03T16:59:40.082Z,29.63
2023-04-03T17:02:10.158Z,32.25
2023-04-03T17:04:39.203Z,32.05
2023-04-03T17:07:08.353Z,31.38
2023-04-03T17:09:37.401Z,30.13
2023-04-03T17:12:06.655Z,29.65
2023-04-03T17:14:35.986Z,30.60
2023-04-03T17:17:06.381Z,29.17
2023-04-03T17:19:36.534Z,31.00
2023-04-03T17:22:05.516Z,31.50
2023-04-03T17:24:35.033Z,28.67
2023-04-03T17:27:04.709Z,29.83
2023-04-03T17:29:33.757Z,28.42
2023-04-03T17:32:02.846Z,29.10
2023-04-03T17:34:31.864Z,29.17
2023-04-03T17:37:01.161Z,29.52
2023-04-03T17:39:30.450Z,29.27
2023-04-03T17:41:59.749Z,27.35
2023-04-03T17:44:28.953Z,29.08
2023-04-03T17:46:58.207Z,28.58
2023-04-03T17:49:27.169Z,27.08
2023-04-03T17:51:56.170Z,29.50
2023-04-03T17:54:25.526Z,30.27
2023-04-03T17:56:54.562Z,27.60
2023-04-03T17:59:23.641Z,28.20
2023-04-03T18:01:53.733Z,27.92
2023-04-03T18:04:23.015Z,27.40
2023-04-03T18:06:55.108Z,29.88
2023-04-03T18:09:28.321Z,29.85
2023-04-03T18:11:59.737Z,29.17
2023-04-03T18:14:29.812Z,28.77
2023-04-03T18:16:58.805Z,30.70
2023-04-03T18:19:30.047Z,29.10
2023-04-03T18:22:22.227Z,29.52
2023-04-03T18:24:52.960Z,30.70
2023-04-03T18:27:24.413Z,28.85
2023-04-03T18:29:58.880Z,29.60
2023-04-03T18:32:27.978Z,28.15
2023-04-03T18:34:58.153Z,30.05
2023-04-03T18:37:27.705Z,29.27
2023-04-03T18:39:56.919Z,27.08
2023-04-03T18:42:28.187Z,28.42
2023-04-03T18:45:02.246Z,28.65
2023-04-03T18:47:31.783Z,28.08
2023-04-03T18:50:00.904Z,28.98
2023-04-03T18:52:30.003Z,27.58
2023-04-03T18:54:59.048Z,29.05
2023-04-03T18:57:28.042Z,29.20
2023-04-03T18:59:57.115Z,28.35
2023-04-03T19:02:27.222Z,29.98
2023-04-03T19:04:57.069Z,28.58
2023-04-03T19:07:26.366Z,27.15
2023-04-03T19:09:56.287Z,29.83
2023-04-03T19:12:25.346Z,29.13
2023-04-03T19:14:54.492Z,29.77
2023-04-03T19:17:23.464Z,30.17
2023-04-03T19:19:52.772Z,28.80
2023-04-03T19:22:21.811Z,29.17
2023-04-03T19:24:50.821Z,27.73
2023-04-03T19:27:19.775Z,30.85
2023-04-03T19:29:51.577Z,29.23
2023-04-03T19:32:20.547Z,30.27
2023-04-03T19:34:49.763Z,28.85
2023-04-03T19:37:19.483Z,29.77
2023-04-03T19:39:48.850Z,29.55
2023-04-03T19:42:18.842Z,28.75
2023-04-03T19:44:49.819Z,29.67
2023-04-03T19:47:20.540Z,30.33
2023-04-03T19:49:50.171Z,29.60
2023-04-03T19:52:19.390Z,29.02
2023-04-03T19:54:48.688Z,30.20
2023-04-03T19:57:18.818Z,29.88
2023-04-03T19:59:47.809Z,30.08
2023-04-03T20:02:17.965Z,30.65
2023-04-03T20:04:47.138Z,30.17
2023-04-03T20:07:16.201Z,30.30
2023-04-03T20:09:45.131Z,30.75
2023-04-03T20:12:14.135Z,32.55
2023-04-03T20:14:43.724Z,32.00
2023-04-03T20:17:12.914Z,33.22
2023-04-03T20:19:42.010Z,31.23
2023-04-03T20:22:11.025Z,30.67
2023-04-03T20:24:40.111Z,31.08
2023-04-03T20:27:09.037Z,32.67
2023-04-03T20:29:38.749Z,32.63
2023-04-03T20:32:08.611Z,32.63
2023-04-03T20:34:37.605Z,33.63
2023-04-03T20:37:07.294Z,31.77
2023-04-03T20:39:36.432Z,32.75
2023-04-03T20:42:05.918Z,33.95
2023-04-03T20:44:34.986Z,33.38
2023-04-03T20:47:04.065Z,33.10
2023-04-03T20:49:33.210Z,31.73
2023-04-03T20:52:02.159Z,32.60
2023-04-03T20:54:31.370Z,33.05
2023-04-03T20:57:00.399Z,32.03
2023-04-03T20:59:30.292Z,33.13
2023-04-03T21:02:00.562Z,32.97
2023-04-03T21:04:40.672Z,33.45
2023-04-03T21:07:47.816Z,32.95
2023-04-03T21:10:53.427Z,33.50
2023-04-03T21:13:59.402Z,32.50
2023-04-03T21:16:28.406Z,33.97
2023-04-03T21:18:57.587Z,32.42
2023-04-03T21:21:28.190Z,32.35
2023-04-03T21:23:58.235Z,33.47
2023-04-03T21:26:28.973Z,32.63
2023-04-03T21:28:58.051Z,35.88
2023-04-03T21:31:47.307Z,32.10
2023-04-03T21:34:21.020Z,33.00
2023-04-03T21:36:53.954Z,36.45
2023-04-03T21:39:24.270Z,34.00
2023-04-03T21:41:56.160Z,33.83
2023-04-03T21:44:26.111Z,34.35
2023-04-03T21:46:58.324Z,33.70
2023-04-03T21:49:28.500Z,35.55
2023-04-03T21:51:57.811Z,35.28
2023-04-03T21:54:27.038Z,34.72
2023-04-03T21:56:56.004Z,37.30
2023-04-03T21:59:25.135Z,36.13
2023-04-03T22:01:54.470Z,37.50
2023-04-03T22:04:23.666Z,37.65
2023-04-03T22:06:52.940Z,38.13
2023-04-03T22:09:22.008Z,38.40
2023-04-03T22:11:51.159Z,37.90
2023-04-03T22:14:20.365Z,36.17
2023-04-03T22:16:49.553Z,37.50
2023-04-03T22:19:18.520Z,36.40
2023-04-03T22:21:47.868Z,35.92
2023-04-03T22:24:19.406Z,36.42
2023-04-03T22:26:49.001Z,38.25
2023-04-03T22:29:18.460Z,37.63
2023-04-03T22:31:47.474Z,37.35
2023-04-03T22:34:17.676Z,39.58
2023-04-03T22:36:46.756Z,38.17
2023-04-03T22:39:17.545Z,38.45
2023-04-03T22:41:46.914Z,39.15
2023-04-03T22:44:16.041Z,39.55
2023-04-03T22:46:45.072Z,39.08
2023-04-03T22:49:14.256Z,38.05
2023-04-03T22:51:43.184Z,37.22
2023-04-03T22:54:12.146Z,39.65
2023-04-03T22:56:41.075Z,37.72
2023-04-03T22:59:10.143Z,37.28
2023-04-03T23:01:39.573Z,39.78
2023-04-03T23:04:08.950Z,39.28
2023-04-03T23:06:37.946Z,40.65
2023-04-03T23:09:06.914Z,41.08
2023-04-03T23:11:35.901Z,43.13
2023-04-03T23:14:04.950Z,42.45
2023-04-03T23:16:34.265Z,42.45
2023-04-03T23:19:03.757Z,44.72
2023-04-03T23:21:32.753Z,43.35
2023-04-03T23:24:04.619Z,41.05
2023-04-03T23:26:33.590Z,43.05
2023-04-03T23:29:02.914Z,42.25
2023-04-03T23:31:31.993Z,40.45
2023-04-03T23:34:01.046Z,40.80
2023-04-03T23:36:30.000Z,40.83
2023-04-03T23:38:59.078Z,40.22
2023-04-03T23:41:28.174Z,42.40
2023-04-03T23:43:57.144Z,43.00
2023-04-03T23:46:26.472Z,42.17
2023-04-03T23:48:55.738Z,42.00
2023-04-03T23:51:24.805Z,38.72
2023-04-03T23:53:53.829Z,39.05
2023-04-03T23:56:22.850Z,38.95
2023-04-03T23:58:52.138Z,43.10
